createdAt,value
2018-12-24T00:01:17.193Z,8.23
2018-12-24T00:04:05.515Z,7.63
2018-12-24T00:06:46.403Z,8.27
2018-12-24T00:09:34.892Z,8.13
2018-12-24T00:12:17.882Z,8.40
2018-12-24T00:15:06.547Z,8.80
2018-12-24T00:17:47.763Z,8.97
2018-12-24T00:20:36.150Z,9.17
2018-12-24T00:23:17.791Z,8.10
2018-12-24T00:26:06.127Z,9.77
2018-12-24T00:28:46.858Z,9.80
2018-12-24T00:31:35.766Z,9.70
2018-12-24T00:34:16.696Z,9.23
2018-12-24T00:37:04.905Z,10.37
2018-12-24T00:39:45.793Z,8.57
2018-12-24T00:42:34.400Z,9.53
2018-12-24T00:45:15.791Z,9.20
2018-12-24T00:48:04.063Z,10.57
2018-12-24T00:50:47.426Z,9.70
2018-12-24T00:53:35.745Z,9.30
2018-12-24T00:56:20.107Z,9.07
2018-12-24T00:59:08.674Z,9.70
2018-12-24T01:01:49.530Z,9.90
2018-12-24T01:04:37.816Z,9.13
2018-12-24T01:07:19.624Z,9.07
2018-12-24T01:10:07.948Z,8.10
2018-12-24T01:12:49.558Z,7.90
2018-12-24T01:15:38.448Z,8.27
2018-12-24T01:18:21.254Z,7.47
2018-12-24T01:21:09.650Z,7.93
2018-12-24T01:23:50.721Z,6.87
2018-12-24T01:26:38.997Z,6.13
2018-12-24T01:29:08.242Z,6.80
2018-12-24T01:31:37.429Z,6.33
2018-12-24T01:34:18.689Z,6.10
2018-12-24T01:37:06.970Z,5.90
2018-12-24T01:39:48.734Z,6.63
2018-12-24T01:42:36.989Z,7.30
2018-12-24T01:45:37.697Z,6.70
2018-12-24T01:48:26.354Z,6.83
2018-12-24T01:51:07.432Z,6.73
2018-12-24T01:53:55.744Z,6.87
2018-12-24T01:56:39.098Z,7.60
2018-12-24T01:59:27.662Z,6.37
2018-12-24T02:02:09.471Z,6.93
2018-12-24T02:04:58.362Z,7.40
2018-12-24T02:07:39.106Z,5.63
2018-12-24T02:10:27.528Z,7.33
2018-12-24T02:13:09.053Z,6.97
2018-12-24T02:15:57.554Z,7.20
2018-12-24T02:18:38.681Z,7.30
2018-12-24T02:21:26.986Z,8.07
2018-12-24T02:24:10.429Z,7.27
2018-12-24T02:26:58.862Z,8.30
2018-12-24T02:29:40.364Z,8.67
2018-12-24T02:32:28.329Z,8.63
2018-12-24T02:35:10.078Z,8.97
2018-12-24T02:37:58.396Z,8.47
2018-12-24T02:40:39.830Z,9.40
2018-12-24T02:43:28.144Z,9.20
2018-12-24T02:46:09.656Z,8.93
2018-12-24T02:48:58.321Z,10.30
2018-12-24T02:51:39.815Z,9.40
2018-12-24T02:54:21.186Z,9.73
2018-12-24T02:57:02.857Z,10.10
2018-12-24T02:59:44.381Z,9.77
2018-12-24T03:02:33.175Z,10.63
2018-12-24T03:05:14.065Z,9.93
2018-12-24T03:08:02.351Z,9.40
2018-12-24T03:10:43.855Z,9.93
2018-12-24T03:13:32.205Z,9.30
2018-12-24T03:16:13.688Z,8.53
2018-12-24T03:19:02.059Z,9.07
2018-12-24T03:21:43.927Z,9.17
2018-12-24T03:24:25.359Z,8.33
2018-12-24T03:27:06.684Z,8.40
2018-12-24T03:29:55.081Z,8.57
2018-12-24T03:32:36.641Z,8.43
2018-12-24T03:35:25.347Z,7.60
2018-12-24T03:38:06.732Z,6.63
2018-12-24T03:44:22.967Z,6.07
2018-12-24T03:47:04.281Z,6.73
2018-12-24T03:49:45.812Z,7.33
2018-12-24T03:52:34.658Z,7.23
2018-12-24T03:55:15.817Z,7.97
2018-12-24T03:58:04.166Z,7.87
2018-12-24T04:00:46.829Z,7.40
2018-12-24T04:03:35.802Z,8.40
2018-12-24T04:06:17.106Z,7.80
2018-12-24T04:09:06.127Z,7.93
2018-12-24T04:11:47.049Z,8.70
2018-12-24T04:14:35.411Z,8.03
2018-12-24T04:17:16.614Z,6.37
2018-12-24T04:20:05.157Z,6.00
2018-12-24T04:22:46.520Z,8.63
2018-12-24T04:25:40.108Z,8.37
2018-12-24T04:28:21.718Z,7.83
2018-12-24T04:31:10.112Z,9.23
2018-12-24T04:33:51.434Z,9.17
2018-12-24T04:36:41.277Z,10.73
2018-12-24T04:39:22.182Z,10.13
2018-12-24T04:42:10.462Z,8.63
2018-12-24T04:44:53.227Z,9.90
2018-12-24T04:47:41.650Z,9.37
2018-12-24T04:50:22.970Z,9.60
2018-12-24T04:53:11.442Z,10.77
2018-12-24T04:55:53.157Z,11.27
2018-12-24T04:58:42.891Z,9.77
2018-12-24T05:01:24.063Z,10.37
2018-12-24T05:04:12.515Z,10.17
2018-12-24T05:06:54.210Z,8.87
2018-12-24T05:09:43.241Z,8.40
2018-12-24T05:12:24.287Z,7.97
2018-12-24T05:15:12.655Z,7.80
2018-12-24T05:18:00.500Z,8.00
2018-12-24T05:20:48.936Z,6.83
2018-12-24T05:23:30.581Z,7.67
2018-12-24T05:26:19.034Z,7.60
2018-12-24T05:29:00.237Z,7.40
2018-12-24T05:31:48.856Z,7.63
2018-12-24T05:34:30.797Z,8.27
2018-12-24T05:37:19.142Z,6.80
2018-12-24T05:40:00.703Z,7.20
2018-12-24T05:42:49.147Z,6.63
2018-12-24T05:45:30.905Z,6.70
2018-12-24T05:48:22.199Z,6.70
2018-12-24T05:51:03.847Z,7.07
2018-12-24T05:53:52.532Z,6.37
2018-12-24T05:56:35.431Z,6.57
2018-12-24T05:59:23.716Z,4.90
2018-12-24T06:02:05.468Z,4.60
2018-12-24T06:04:53.838Z,5.03
2018-12-24T06:07:35.532Z,4.77
2018-12-24T06:10:23.933Z,3.67
2018-12-24T06:13:05.102Z,3.33
2018-12-24T06:15:53.478Z,5.10
2018-12-24T06:18:34.915Z,4.60
2018-12-24T06:21:23.254Z,4.37
2018-12-24T06:24:04.866Z,4.43
2018-12-24T06:26:53.365Z,4.00
2018-12-24T06:29:34.663Z,3.90
2018-12-24T06:32:22.985Z,4.40
2018-12-24T06:35:06.318Z,3.63
2018-12-24T06:37:54.676Z,4.07
2018-12-24T06:40:36.502Z,3.30
2018-12-24T06:43:24.917Z,2.90
2018-12-24T06:46:06.166Z,3.43
2018-12-24T06:48:35.400Z,3.20
2018-12-24T06:51:16.955Z,3.53
2018-12-24T06:54:05.370Z,3.80
2018-12-24T06:56:46.294Z,3.47
2018-12-24T06:59:34.735Z,4.07
2018-12-24T07:02:15.606Z,4.00
2018-12-24T07:05:04.554Z,4.67
2018-12-24T07:07:45.776Z,4.53
2018-12-24T07:10:34.061Z,3.97
2018-12-24T07:13:15.252Z,4.63
2018-12-24T07:16:03.573Z,4.53
2018-12-24T07:18:44.970Z,4.67
2018-12-24T07:21:33.379Z,4.60
2018-12-24T07:24:14.885Z,4.83
2018-12-24T07:27:03.434Z,4.43
2018-12-24T07:29:45.115Z,5.13
2018-12-24T07:32:33.602Z,4.07
2018-12-24T07:35:14.872Z,4.30
2018-12-24T07:38:03.208Z,3.80
2018-12-24T07:40:45.863Z,4.43
2018-12-24T07:43:34.264Z,4.30
2018-12-24T07:46:16.399Z,4.40
2018-12-24T07:49:04.724Z,4.70
2018-12-24T07:51:46.172Z,4.60
2018-12-24T07:54:34.657Z,4.57
2018-12-24T07:57:16.115Z,3.80
2018-12-24T08:00:04.712Z,4.27
2018-12-24T08:02:46.377Z,4.37
2018-12-24T08:05:34.892Z,4.60
2018-12-24T08:08:16.306Z,4.80
2018-12-24T08:11:04.651Z,3.90
2018-12-24T08:13:48.217Z,4.90
2018-12-24T08:16:36.636Z,4.63
2018-12-24T08:19:17.789Z,5.30
2018-12-24T08:21:46.908Z,5.60
2018-12-24T08:24:28.900Z,4.57
2018-12-24T08:27:17.440Z,4.77
2018-12-24T08:29:58.578Z,5.03
2018-12-24T08:32:47.012Z,4.10
2018-12-24T08:35:28.491Z,4.83
2018-12-24T08:38:17.114Z,5.10
2018-12-24T08:40:59.077Z,4.23
2018-12-24T08:43:47.626Z,4.27
2018-12-24T08:46:27.362Z,3.77
2018-12-24T08:49:16.160Z,4.00
2018-12-24T08:51:57.497Z,3.87
2018-12-24T08:54:46.461Z,4.03
2018-12-24T08:57:25.957Z,4.93
2018-12-24T09:00:14.356Z,4.67
2018-12-24T09:02:57.725Z,4.40
2018-12-24T09:05:46.249Z,4.33
2018-12-24T09:08:27.511Z,4.70
2018-12-24T09:11:16.520Z,4.70
2018-12-24T09:13:57.686Z,4.40
2018-12-24T09:16:26.698Z,4.70
2018-12-24T09:18:56.485Z,4.17
2018-12-24T09:21:45.031Z,4.40
2018-12-24T09:24:27.021Z,4.40
2018-12-24T09:27:15.356Z,4.90
2018-12-24T09:29:56.720Z,4.67
2018-12-24T09:32:45.213Z,4.60
2018-12-24T09:35:24.761Z,4.30
2018-12-24T09:38:13.193Z,4.00
2018-12-24T09:40:55.043Z,3.70
2018-12-24T09:43:44.131Z,3.73
2018-12-24T09:46:25.730Z,3.67
2018-12-24T09:49:14.155Z,3.73
2018-12-24T09:51:55.821Z,3.97
2018-12-24T09:54:44.220Z,3.70
2018-12-24T09:57:25.925Z,3.97
2018-12-24T10:00:16.276Z,4.00
2018-12-24T10:02:59.559Z,3.97
2018-12-24T10:05:48.503Z,4.10
2018-12-24T10:08:30.182Z,3.90
2018-12-24T10:11:18.617Z,4.07
2018-12-24T10:13:59.843Z,4.47
2018-12-24T10:16:48.254Z,4.07
2018-12-24T10:19:29.311Z,4.20
2018-12-24T10:21:58.662Z,3.90
2018-12-24T10:24:39.743Z,4.23
2018-12-24T10:27:28.176Z,3.73
2018-12-24T10:30:09.576Z,3.77
2018-12-24T10:32:57.989Z,3.60
2018-12-24T10:35:39.741Z,3.50
2018-12-24T10:38:28.132Z,3.40
2018-12-24T10:41:11.379Z,3.63
2018-12-24T10:44:00.284Z,3.80
2018-12-24T10:46:42.296Z,3.63
2018-12-24T10:49:30.678Z,3.73
2018-12-24T10:52:12.235Z,3.67
2018-12-24T10:55:00.551Z,4.03
2018-12-24T10:57:41.818Z,3.90
2018-12-24T11:00:30.419Z,3.70
2018-12-24T11:03:11.844Z,3.50
2018-12-24T11:06:00.270Z,4.03
2018-12-24T11:08:43.474Z,4.70
2018-12-24T11:11:32.592Z,3.60
2018-12-24T11:14:13.968Z,4.13
2018-12-24T11:17:02.514Z,3.83
2018-12-24T11:19:43.884Z,4.17
2018-12-24T11:22:32.504Z,4.47
2018-12-24T11:25:15.290Z,3.90
2018-12-24T11:28:03.839Z,4.20
2018-12-24T11:30:45.419Z,4.30
2018-12-24T11:33:33.697Z,4.33
2018-12-24T11:36:14.998Z,3.90
2018-12-24T11:42:31.266Z,4.70
2018-12-24T11:45:14.834Z,4.63
2018-12-24T11:47:58.059Z,6.43
2018-12-24T11:50:47.287Z,5.37
2018-12-24T11:53:28.906Z,4.73
2018-12-24T11:56:17.518Z,4.43
2018-12-24T11:59:00.585Z,4.73
2018-12-24T12:01:48.778Z,5.17
2018-12-24T12:04:29.784Z,5.33
2018-12-24T12:07:18.355Z,5.50
2018-12-24T12:10:00.350Z,5.07
2018-12-24T12:12:48.776Z,5.90
2018-12-24T12:15:29.915Z,4.70
2018-12-24T12:18:18.562Z,5.73
2018-12-24T12:21:00.012Z,4.50
2018-12-24T12:23:49.153Z,4.37
2018-12-24T12:26:30.385Z,4.67
2018-12-24T12:29:19.131Z,4.90
2018-12-24T12:32:00.020Z,5.10
2018-12-24T12:34:48.404Z,5.13
2018-12-24T12:37:27.792Z,4.43
2018-12-24T12:40:16.360Z,4.10
2018-12-24T12:42:58.002Z,4.40
2018-12-24T12:45:51.257Z,3.70
2018-12-24T12:48:49.604Z,3.30
2018-12-24T12:51:38.751Z,3.50
2018-12-24T12:54:20.300Z,3.93
2018-12-24T12:57:08.797Z,3.77
2018-12-24T12:59:50.495Z,4.00
2018-12-24T13:02:39.065Z,3.60
2018-12-24T13:05:20.567Z,3.93
2018-12-24T13:08:08.857Z,4.40
2018-12-24T13:10:38.274Z,5.00
2018-12-24T13:13:07.418Z,4.43
2018-12-24T13:15:49.657Z,4.67
2018-12-24T13:18:38.035Z,4.73
2018-12-24T13:21:19.129Z,4.83
2018-12-24T13:24:07.607Z,4.20
2018-12-24T13:26:48.607Z,4.53
2018-12-24T13:29:37.368Z,4.67
2018-12-24T13:32:20.515Z,4.87
2018-12-24T13:35:09.030Z,4.90
2018-12-24T13:37:50.769Z,4.80
2018-12-24T13:40:39.349Z,4.70
2018-12-24T13:43:22.097Z,4.53
2018-12-24T13:45:51.238Z,4.70
2018-12-24T13:48:32.379Z,5.43
2018-12-24T13:51:20.705Z,6.63
2018-12-24T13:54:01.745Z,5.37
2018-12-24T13:56:50.513Z,5.40
2018-12-24T13:59:31.932Z,5.23
2018-12-24T14:02:20.345Z,5.57
2018-12-24T14:05:02.012Z,4.80
2018-12-24T14:07:50.428Z,4.60
2018-12-24T14:10:32.098Z,4.93
2018-12-24T14:13:20.841Z,5.20
2018-12-24T14:16:02.436Z,5.80
2018-12-24T14:18:51.311Z,5.40
2018-12-24T14:21:32.704Z,4.97
2018-12-24T14:24:21.194Z,4.83
2018-12-24T14:27:02.510Z,4.77
2018-12-24T14:29:50.917Z,4.60
2018-12-24T14:32:31.869Z,4.63
2018-12-24T14:35:20.268Z,4.80
2018-12-24T14:38:01.246Z,5.13
2018-12-24T14:40:49.728Z,5.57
2018-12-24T14:43:31.068Z,4.70
2018-12-24T14:46:25.550Z,4.90
2018-12-24T14:49:09.606Z,4.97
2018-12-24T14:51:59.047Z,4.70
2018-12-24T14:54:40.936Z,5.00
2018-12-24T14:57:29.347Z,4.90
2018-12-24T15:00:10.975Z,5.23
2018-12-24T15:02:59.400Z,4.63
2018-12-24T15:05:40.193Z,5.03
2018-12-24T15:08:28.534Z,5.90
2018-12-24T15:11:10.199Z,4.83
2018-12-24T15:13:58.593Z,4.53
2018-12-24T15:16:40.053Z,5.53
2018-12-24T15:19:09.969Z,5.67
2018-12-24T15:21:51.019Z,4.93
2018-12-24T15:24:39.372Z,5.43
2018-12-24T15:27:20.843Z,5.07
2018-12-24T15:30:09.453Z,4.53
2018-12-24T15:32:50.932Z,5.47
2018-12-24T15:35:39.456Z,5.43
2018-12-24T15:38:20.686Z,5.17
2018-12-24T15:41:09.299Z,5.17
2018-12-24T15:43:50.688Z,4.93
2018-12-24T15:46:42.741Z,5.23
2018-12-24T15:49:26.481Z,4.43
2018-12-24T15:51:55.688Z,4.27
2018-12-24T15:54:37.307Z,4.97
2018-12-24T15:57:25.749Z,3.97
2018-12-24T16:00:08.006Z,3.93
2018-12-24T16:02:56.357Z,3.60
2018-12-24T16:05:39.542Z,3.03
2018-12-24T16:08:28.767Z,3.20
2018-12-24T16:11:10.509Z,3.83
2018-12-24T16:13:58.910Z,3.43
2018-12-24T16:16:40.545Z,4.37
2018-12-24T16:19:29.564Z,4.20
2018-12-24T16:22:11.329Z,3.67
2018-12-24T16:24:59.907Z,3.37
2018-12-24T16:27:41.250Z,2.90
2018-12-24T16:30:29.896Z,4.00
2018-12-24T16:33:11.344Z,4.00
2018-12-24T16:35:40.377Z,4.40
2018-12-24T16:38:21.483Z,3.27
2018-12-24T16:41:09.999Z,3.83
2018-12-24T16:43:51.216Z,4.37
2018-12-24T16:46:39.986Z,4.97
2018-12-24T16:49:20.988Z,4.73
2018-12-24T16:52:09.313Z,4.03
2018-12-24T16:54:52.312Z,4.20
2018-12-24T16:57:41.322Z,4.10
2018-12-24T17:00:43.680Z,3.60
2018-12-24T17:03:32.088Z,5.37
2018-12-24T17:06:13.776Z,4.80
2018-12-24T17:09:02.249Z,4.50
2018-12-24T17:11:46.347Z,5.45
2018-12-24T17:14:34.884Z,5.00
2018-12-24T17:17:15.784Z,5.23
2018-12-24T17:20:04.311Z,4.80
2018-12-24T17:22:45.848Z,5.77
2018-12-24T17:25:34.257Z,4.23
2018-12-24T17:28:15.701Z,5.80
2018-12-24T17:31:04.113Z,4.40
2018-12-24T17:33:45.849Z,5.40
2018-12-24T17:36:34.470Z,4.83
2018-12-24T17:39:15.608Z,4.83
2018-12-24T17:42:03.971Z,5.37
2018-12-24T17:44:45.673Z,4.43
2018-12-24T17:47:27.193Z,4.20
2018-12-24T17:50:08.426Z,4.70
2018-12-24T17:52:56.735Z,4.30
2018-12-24T17:55:37.917Z,3.53
2018-12-24T17:58:26.394Z,3.77
2018-12-24T18:01:09.778Z,13.33
2018-12-24T18:03:58.197Z,13.57
2018-12-24T18:06:39.177Z,5.43
2018-12-24T18:09:27.634Z,4.13
2018-12-24T18:12:08.875Z,3.03
2018-12-24T18:14:57.317Z,2.90
2018-12-24T18:17:39.026Z,2.10
2018-12-24T18:20:27.557Z,2.53
2018-12-24T18:23:08.388Z,2.03
2018-12-24T18:25:56.807Z,1.50
2018-12-24T18:28:37.547Z,2.23
2018-12-24T18:31:26.306Z,1.60
2018-12-24T18:34:07.308Z,1.40
2018-12-24T18:36:55.764Z,2.77
2018-12-24T18:39:37.800Z,1.80
2018-12-24T18:42:26.357Z,1.50
2018-12-24T18:45:07.912Z,1.70
2018-12-24T18:47:49.775Z,1.90
2018-12-24T18:50:32.493Z,1.70
2018-12-24T18:53:21.066Z,1.50
2018-12-24T18:56:04.312Z,1.73
2018-12-24T18:58:52.847Z,1.60
2018-12-24T19:01:34.641Z,1.87
2018-12-24T19:04:23.799Z,1.43
2018-12-24T19:07:04.958Z,1.67
2018-12-24T19:09:53.382Z,1.63
2018-12-24T19:12:35.124Z,1.77
2018-12-24T19:15:23.760Z,1.80
2018-12-24T19:18:06.865Z,2.20
2018-12-24T19:20:55.551Z,2.47
2018-12-24T19:23:37.141Z,2.87
2018-12-24T19:26:25.724Z,2.13
2018-12-24T19:29:06.779Z,2.57
2018-12-24T19:31:55.497Z,2.30
2018-12-24T19:34:36.910Z,2.30
2018-12-24T19:37:25.588Z,2.33
2018-12-24T19:40:07.549Z,2.70
2018-12-24T19:42:56.015Z,2.52
2018-12-24T19:45:38.596Z,2.80
2018-12-24T19:48:20.120Z,2.80
2018-12-24T19:51:01.532Z,2.13
2018-12-24T19:53:43.356Z,2.47
2018-12-24T19:56:31.877Z,2.80
2018-12-24T19:59:13.234Z,2.70
2018-12-24T20:02:02.277Z,3.00
2018-12-24T20:04:44.125Z,2.30
2018-12-24T20:07:32.624Z,2.80
2018-12-24T20:10:13.800Z,2.30
2018-12-24T20:13:02.497Z,2.27
2018-12-24T20:15:43.795Z,2.73
2018-12-24T20:18:32.082Z,2.33
2018-12-24T20:21:15.916Z,2.10
2018-12-24T20:24:04.457Z,2.27
2018-12-24T20:26:46.592Z,2.23
2018-12-24T20:29:34.992Z,2.60
2018-12-24T20:32:04.890Z,2.27
2018-12-24T20:34:45.931Z,2.37
2018-12-24T20:37:34.775Z,1.90
2018-12-24T20:40:16.080Z,2.37
2018-12-24T20:43:04.682Z,2.57
2018-12-24T20:45:48.195Z,2.33
2018-12-24T20:48:29.009Z,2.53
2018-12-24T20:51:16.067Z,2.20
2018-12-24T20:54:01.479Z,2.63
2018-12-24T20:56:30.669Z,1.80
2018-12-24T20:59:19.438Z,2.50
2018-12-24T21:01:59.004Z,2.23
2018-12-24T21:04:47.386Z,2.07
2018-12-24T21:07:29.257Z,2.47
2018-12-24T21:10:17.561Z,1.90
2018-12-24T21:12:58.321Z,2.23
2018-12-24T21:15:46.734Z,2.50
2018-12-24T21:18:29.774Z,2.00
2018-12-24T21:24:46.497Z,2.20
2018-12-24T21:27:28.221Z,1.97
2018-12-24T21:30:09.688Z,2.13
2018-12-24T21:32:58.187Z,1.83
2018-12-24T21:35:40.057Z,2.30
2018-12-24T21:38:29.198Z,1.77
2018-12-24T21:41:10.909Z,2.03
2018-12-24T21:43:59.365Z,2.17
2018-12-24T21:46:41.282Z,2.00
2018-12-24T21:49:22.923Z,1.73
2018-12-24T21:52:04.643Z,2.03
2018-12-24T21:54:52.922Z,2.07
2018-12-24T21:57:34.923Z,1.80
2018-12-24T22:00:23.457Z,1.80
2018-12-24T22:03:05.033Z,1.90
2018-12-24T22:05:53.589Z,2.37
2018-12-24T22:08:34.474Z,1.60
2018-12-24T22:11:22.929Z,1.97
2018-12-24T22:14:04.584Z,1.63
2018-12-24T22:16:53.222Z,1.83
2018-12-24T22:19:35.209Z,2.00
2018-12-24T22:22:23.939Z,1.90
2018-12-24T22:25:05.006Z,1.47
2018-12-24T22:27:53.407Z,2.00
2018-12-24T22:30:34.588Z,1.87
2018-12-24T22:33:23.004Z,1.63
2018-12-24T22:36:04.152Z,1.57
2018-12-24T22:38:52.496Z,2.00
2018-12-24T22:41:34.263Z,1.63
2018-12-24T22:44:22.914Z,1.70
2018-12-24T22:47:03.931Z,1.83
2018-12-24T22:49:45.815Z,1.77
2018-12-24T22:52:27.036Z,1.77
2018-12-24T22:55:15.543Z,1.43
2018-12-24T22:57:57.226Z,2.07
2018-12-24T23:04:33.241Z,2.23
2018-12-24T23:07:16.153Z,1.80
2018-12-24T23:09:57.719Z,1.87
2018-12-24T23:12:45.934Z,2.07
2018-12-24T23:15:27.374Z,1.77
2018-12-24T23:18:15.905Z,1.90
2018-12-24T23:20:56.945Z,1.83
2018-12-24T23:23:45.405Z,1.80
2018-12-24T23:26:26.405Z,2.10
2018-12-24T23:29:14.786Z,2.50
2018-12-24T23:31:56.245Z,2.33
2018-12-24T23:34:44.732Z,2.60
2018-12-24T23:37:25.669Z,2.17
2018-12-24T23:40:14.186Z,2.30
2018-12-24T23:42:55.743Z,2.80
2018-12-24T23:45:44.185Z,4.23
2018-12-24T23:48:26.151Z,2.60
2018-12-24T23:51:15.692Z,2.70
2018-12-24T23:53:56.495Z,2.50
2018-12-24T23:56:44.691Z,2.20
2018-12-24T23:59:24.190Z,2.60
